Time;durP1;ratioP1;P1;durP2;ratioP2;P2;SDS_P1;SDS_P2;PMS_P1;PMS_P2;Temp;Humidity;BMP_temperature;BMP_pressure;BME280_temperature;BME280_humidity;BME280_pressure;Samples;Min_cycle;Max_cycle;Signal;HPM_P1;HPM_P2
2022/09/06 00:01:43;;;;;;;0.50;0.50;;;25.10;58.20;;;;;;5049603;28;20047;-58
2022/09/06 00:04:10;;;;;;;3.42;0.30;;;25.10;58.10;;;;;;5054680;28;20041;-60
2022/09/06 00:06:37;;;;;;;5.57;0.22;;;25.00;58.00;;;;;;5049830;28;20041;-60
2022/09/06 00:09:04;;;;;;;1.38;0.43;;;25.00;58.00;;;;;;5046361;28;20137;-59
2022/09/06 00:11:31;;;;;;;5.43;0.70;;;25.00;58.00;;;;;;5048557;28;20123;-60
2022/09/06 00:14:00;;;;;;;2.40;0.13;;;25.00;58.10;;;;;;5050616;28;20043;-59
2022/09/06 00:16:27;;;;;;;0.63;0.20;;;25.00;58.20;;;;;;5051587;28;20099;-59
2022/09/06 00:18:54;;;;;;;1.52;0.20;;;24.90;58.10;;;;;;5052431;28;20039;-60
2022/09/06 00:21:24;;;;;;;1.23;0.20;;;24.90;58.20;;;;;;5056313;28;20422;-60
2022/09/06 00:23:51;;;;;;;2.33;0.20;;;24.90;58.90;;;;;;5044562;28;20111;-60
2022/09/06 00:26:18;;;;;;;4.28;0.43;;;24.90;59.00;;;;;;5055776;28;20041;-59
2022/09/06 00:28:46;;;;;;;2.15;0.25;;;24.80;58.50;;;;;;5052923;28;20094;-59
2022/09/06 00:31:16;;;;;;;2.35;0.90;;;24.80;58.40;;;;;;5043328;28;20135;-59
2022/09/06 00:33:43;;;;;;;0.30;0.20;;;24.80;58.50;;;;;;5050776;28;20040;-57
2022/09/06 00:36:12;;;;;;;4.78;0.30;;;24.80;58.70;;;;;;5050792;28;20040;-60
2022/09/06 00:38:40;;;;;;;4.35;0.40;;;24.70;58.70;;;;;;5048523;28;20045;-59
2022/09/06 00:41:09;;;;;;;1.17;0.30;;;24.70;58.70;;;;;;5051526;28;20041;-59
2022/09/06 00:43:36;;;;;;;1.52;0.30;;;24.70;58.70;;;;;;5046350;28;20046;-60
2022/09/06 00:46:06;;;;;;;3.00;0.40;;;24.60;58.70;;;;;;5045872;28;20047;-59
2022/09/06 00:48:37;;;;;;;4.05;0.20;;;24.60;58.70;;;;;;5046814;28;20118;-60
2022/09/06 00:51:08;;;;;;;5.30;0.47;;;24.60;58.60;;;;;;5049387;28;20115;-59
2022/09/06 00:53:35;;;;;;;2.67;0.30;;;24.60;58.60;;;;;;5049563;28;20048;-60
2022/09/06 00:56:02;;;;;;;0.20;0.20;;;24.60;58.70;;;;;;5049787;28;20061;-58
2022/09/06 00:58:30;;;;;;;0.57;0.30;;;24.60;58.60;;;;;;5049197;28;20120;-59
2022/09/06 01:00:57;;;;;;;0.95;0.10;;;24.60;58.70;;;;;;5048971;28;20044;-60
2022/09/06 01:03:25;;;;;;;0.47;0.38;;;24.60;58.70;;;;;;5055011;28;20076;-59
2022/09/06 01:06:02;;;;;;;0.40;0.30;;;24.60;58.50;;;;;;5049361;28;20090;-59
2022/09/06 01:08:42;;;;;;;3.38;0.25;;;24.60;58.50;;;;;;5055123;28;20079;-59
2022/09/06 01:11:23;;;;;;;1.85;0.20;;;24.60;58.30;;;;;;5048801;28;20133;-59
2022/09/06 01:14:01;;;;;;;1.63;0.20;;;24.60;58.30;;;;;;5051556;28;20040;-59
2022/09/06 01:16:36;;;;;;;3.70;0.17;;;24.60;58.30;;;;;;5045414;28;20104;-60
2022/09/06 01:19:36;;;;;;;7.03;0.80;;;24.60;58.30;;;;;;5049882;28;20872;-59
2022/09/06 01:22:17;;;;;;;2.60;0.15;;;24.60;58.10;;;;;;5034819;28;20159;-60
2022/09/06 01:25:05;;;;;;;0.45;0.10;;;24.50;58.50;;;;;;5048915;28;20146;-60
2022/09/06 01:27:51;;;;;;;0.20;0.13;;;24.60;58.30;;;;;;5051575;28;20056;-60
2022/09/06 01:30:20;;;;;;;2.08;0.10;;;24.50;58.10;;;;;;5053200;28;20406;-60
2022/09/06 01:32:53;;;;;;;0.43;0.20;;;24.50;58.10;;;;;;5054430;28;20058;-59
2022/09/06 01:35:27;;;;;;;0.95;0.20;;;24.50;58.60;;;;;;5054382;28;20045;-59
2022/09/06 01:37:54;;;;;;;1.83;0.40;;;24.50;58.00;;;;;;5042475;28;20095;-60
2022/09/06 01:40:21;;;;;;;0.93;0.45;;;24.50;58.00;;;;;;5042979;28;20040;-61
2022/09/06 01:42:52;;;;;;;0.75;0.25;;;24.50;58.00;;;;;;5044176;28;20072;-60
2022/09/06 01:45:22;;;;;;;1.10;0.30;;;24.50;57.90;;;;;;5054739;28;20051;-60
2022/09/06 01:48:02;;;;;;;1.98;0.20;;;24.50;57.80;;;;;;5042538;28;20041;-59
2022/09/06 01:50:53;;;;;;;2.72;0.20;;;24.50;57.90;;;;;;5052632;28;20076;-59
2022/09/06 01:53:35;;;;;;;3.35;0.30;;;24.50;57.90;;;;;;5056384;28;20037;-59
2022/09/06 01:56:10;;;;;;;1.92;0.30;;;24.40;57.90;;;;;;5046356;28;20122;-59
2022/09/06 01:59:01;;;;;;;1.02;0.57;;;24.40;57.90;;;;;;5047644;28;20069;-59
2022/09/06 02:01:34;;;;;;;9.43;0.30;;;24.40;58.00;;;;;;5046390;28;20040;-59
2022/09/06 02:04:06;;;;;;;0.52;0.20;;;24.40;58.20;;;;;;5053150;28;20517;-59
2022/09/06 02:06:40;;;;;;;1.58;0.20;;;24.40;58.50;;;;;;5051457;28;20095;-60
2022/09/06 02:09:11;;;;;;;0.70;0.17;;;24.40;58.50;;;;;;5049334;28;20033;-59
2022/09/06 02:11:43;;;;;;;8.40;0.30;;;24.40;58.30;;;;;;5046237;28;20839;-60
2022/09/06 02:14:15;;;;;;;1.05;0.30;;;24.40;58.50;;;;;;5042046;28;20520;-59
2022/09/06 02:16:46;;;;;;;2.47;0.22;;;24.40;58.40;;;;;;5054833;28;20044;-59
2022/09/06 02:19:17;;;;;;;1.00;0.68;;;24.40;58.40;;;;;;5053081;28;20040;-59
2022/09/06 02:21:47;;;;;;;0.88;0.40;;;24.40;58.20;;;;;;5047833;28;20041;-59
2022/09/06 02:24:19;;;;;;;1.38;0.32;;;24.40;58.30;;;;;;5058970;28;20127;-59
2022/09/06 02:26:47;;;;;;;3.20;1.40;;;24.30;58.40;;;;;;5048409;28;20044;-59
2022/09/06 02:29:16;;;;;;;0.50;0.30;;;24.40;58.40;;;;;;5047916;28;20112;-59
2022/09/06 02:31:47;;;;;;;4.72;0.38;;;24.30;58.40;;;;;;5019909;28;20075;-58
2022/09/06 02:34:17;;;;;;;4.28;0.50;;;24.30;58.50;;;;;;5048400;28;20094;-60
2022/09/06 02:36:45;;;;;;;0.20;0.20;;;24.30;58.60;;;;;;5044495;28;20130;-59
2022/09/06 02:39:12;;;;;;;3.13;0.55;;;24.30;58.70;;;;;;5049169;28;20041;-60
2022/09/06 02:41:40;;;;;;;1.63;0.20;;;24.30;58.70;;;;;;5051033;28;20118;-59
2022/09/06 02:44:07;;;;;;;1.17;0.10;;;24.20;58.70;;;;;;5056398;28;20036;-60
2022/09/06 02:46:36;;;;;;;1.23;0.30;;;24.20;58.90;;;;;;5050794;28;20569;-60
2022/09/06 02:49:03;;;;;;;1.27;0.20;;;24.20;59.00;;;;;;5051522;28;20622;-60
2022/09/06 02:51:31;;;;;;;1.85;0.40;;;24.10;59.00;;;;;;5051393;28;20596;-61
2022/09/06 02:53:58;;;;;;;4.75;0.30;;;24.10;59.10;;;;;;5029769;28;20401;-61
2022/09/06 02:56:25;;;;;;;1.67;0.30;;;24.10;59.20;;;;;;5051270;28;20076;-60
2022/09/06 02:58:52;;;;;;;3.85;0.32;;;24.10;59.30;;;;;;5051034;28;20032;-59
2022/09/06 03:01:19;;;;;;;4.38;0.25;;;24.10;59.50;;;;;;5029784;28;20072;-60
2022/09/06 03:03:47;;;;;;;1.83;0.40;;;24.10;59.60;;;;;;5047129;28;20049;-61
2022/09/06 03:06:15;;;;;;;1.08;0.63;;;24.00;59.60;;;;;;5054223;28;20617;-60
2022/09/06 03:08:42;;;;;;;1.10;0.30;;;24.10;59.70;;;;;;5054598;28;20040;-60
2022/09/06 03:11:09;;;;;;;1.85;0.30;;;24.00;59.80;;;;;;5046634;28;20057;-59
2022/09/06 03:13:36;;;;;;;3.63;1.75;;;24.00;59.80;;;;;;5046990;28;20039;-60
2022/09/06 03:16:03;;;;;;;3.05;0.40;;;24.00;60.00;;;;;;5047007;28;20125;-60
2022/09/06 03:18:31;;;;;;;2.05;0.30;;;23.90;60.00;;;;;;5048898;28;20213;-59
2022/09/06 03:21:00;;;;;;;5.13;1.00;;;23.90;60.10;;;;;;5050868;28;20049;-60
2022/09/06 03:23:28;;;;;;;1.88;0.70;;;23.90;60.20;;;;;;5048943;28;20048;-59
2022/09/06 03:25:56;;;;;;;4.72;1.17;;;23.90;60.20;;;;;;5050234;28;20375;-60
2022/09/06 03:28:24;;;;;;;5.22;0.40;;;23.90;60.30;;;;;;5046776;28;20063;-58
2022/09/06 03:30:52;;;;;;;0.35;0.30;;;23.90;60.40;;;;;;5049327;28;20047;-59
2022/09/06 03:33:20;;;;;;;0.35;0.20;;;23.80;60.40;;;;;;5046682;28;20049;-59
2022/09/06 03:35:51;;;;;;;0.60;0.30;;;23.80;60.40;;;;;;5049240;28;20041;-59
2022/09/06 03:38:20;;;;;;;2.17;0.35;;;23.80;61.10;;;;;;5047052;28;20045;-59
2022/09/06 03:40:48;;;;;;;4.13;0.22;;;23.80;60.60;;;;;;5047449;28;20044;-59
2022/09/06 03:43:17;;;;;;;1.70;0.43;;;23.70;60.60;;;;;;5046679;28;20116;-59
2022/09/06 03:45:46;;;;;;;6.05;0.60;;;23.70;60.70;;;;;;5054112;28;20098;-58
2022/09/06 03:48:14;;;;;;;2.33;0.40;;;23.70;60.80;;;;;;5050700;28;20041;-59
2022/09/06 03:50:45;;;;;;;3.58;0.52;;;23.70;60.80;;;;;;5051462;28;20085;-59
2022/09/06 03:53:12;;;;;;;6.57;0.30;;;23.70;60.80;;;;;;5053547;28;20041;-59
2022/09/06 03:55:40;;;;;;;1.70;0.30;;;23.70;60.80;;;;;;5055110;28;20063;-60
2022/09/06 03:58:07;;;;;;;1.08;0.77;;;23.70;60.70;;;;;;5050495;28;20517;-60
2022/09/06 04:00:34;;;;;;;1.25;0.13;;;23.70;60.60;;;;;;5050572;28;20047;-59
2022/09/06 04:03:01;;;;;;;2.03;0.30;;;23.70;60.50;;;;;;5050778;28;20059;-60
2022/09/06 04:05:28;;;;;;;0.90;0.40;;;23.70;60.50;;;;;;5057154;28;20054;-59
2022/09/06 04:07:55;;;;;;;3.40;0.20;;;23.60;60.50;;;;;;5046245;28;20045;-60
2022/09/06 04:10:22;;;;;;;1.75;0.40;;;23.60;60.50;;;;;;5056939;28;20041;-59
2022/09/06 04:12:51;;;;;;;0.60;0.22;;;23.60;60.50;;;;;;5050208;28;20051;-59
2022/09/06 04:15:18;;;;;;;6.45;0.30;;;23.60;60.60;;;;;;5051888;28;20037;-59
2022/09/06 04:17:46;;;;;;;5.82;0.60;;;23.60;60.60;;;;;;5050168;28;20060;-57
2022/09/06 04:20:13;;;;;;;3.20;0.30;;;23.60;60.60;;;;;;5050627;28;20029;-59
2022/09/06 04:22:40;;;;;;;2.42;0.50;;;23.60;60.50;;;;;;5054861;28;20120;-59
2022/09/06 04:25:08;;;;;;;6.07;0.20;;;23.60;60.40;;;;;;5032148;28;20037;-59
2022/09/06 04:27:35;;;;;;;0.80;0.40;;;23.50;60.20;;;;;;5055000;28;20041;-59
2022/09/06 04:30:04;;;;;;;2.38;0.10;;;23.50;60.20;;;;;;5050908;28;20036;-59
2022/09/06 04:32:31;;;;;;;1.85;0.30;;;23.50;60.00;;;;;;5054767;28;20036;-59
2022/09/06 04:34:58;;;;;;;2.50;0.10;;;23.50;59.80;;;;;;5032050;28;20398;-58
2022/09/06 04:37:25;;;;;;;4.07;0.15;;;23.50;59.70;;;;;;5050910;28;20103;-58
2022/09/06 04:39:52;;;;;;;3.30;0.20;;;23.50;59.60;;;;;;5054310;28;20041;-59
2022/09/06 04:42:20;;;;;;;2.05;0.38;;;23.50;59.60;;;;;;5056059;28;20048;-59
2022/09/06 04:44:47;;;;;;;2.05;0.60;;;23.50;59.40;;;;;;5053320;28;20037;-59
2022/09/06 04:47:18;;;;;;;1.95;0.25;;;23.50;59.10;;;;;;5051980;28;20065;-59
2022/09/06 04:49:47;;;;;;;0.63;0.20;;;23.50;58.90;;;;;;5054666;28;20056;-58
2022/09/06 04:52:14;;;;;;;4.22;0.28;;;23.50;59.10;;;;;;5053112;28;20068;-60
2022/09/06 04:54:41;;;;;;;1.85;0.20;;;23.50;58.70;;;;;;5052971;28;20125;-59
2022/09/06 04:57:08;;;;;;;0.82;0.20;;;23.50;58.60;;;;;;5051402;28;20048;-59
2022/09/06 04:59:35;;;;;;;2.60;0.20;;;23.50;58.60;;;;;;5049207;28;20555;-59
2022/09/06 05:02:02;;;;;;;5.20;1.02;;;23.50;58.50;;;;;;5053747;28;20040;-59
2022/09/06 05:04:31;;;;;;;0.95;0.20;;;23.40;58.30;;;;;;5049767;28;20167;-58
2022/09/06 05:07:02;;;;;;;3.10;0.20;;;23.40;58.30;;;;;;5058561;28;20052;-59
2022/09/06 05:09:29;;;;;;;1.85;0.22;;;23.40;58.30;;;;;;5049063;28;20063;-59
2022/09/06 05:11:56;;;;;;;1.00;0.20;;;23.40;58.80;;;;;;5047067;28;20052;-60
2022/09/06 05:14:23;;;;;;;2.05;0.20;;;23.40;58.10;;;;;;5050324;28;20060;-58
2022/09/06 05:16:51;;;;;;;0.20;0.10;;;23.40;58.10;;;;;;5050886;28;20063;-60
2022/09/06 05:19:18;;;;;;;3.20;0.43;;;23.40;58.10;;;;;;5048892;28;20055;-59
2022/09/06 05:21:46;;;;;;;2.75;0.20;;;23.40;58.10;;;;;;5052707;28;20041;-59
2022/09/06 05:24:13;;;;;;;2.20;0.20;;;23.40;58.00;;;;;;5048594;28;20048;-60
2022/09/06 05:26:40;;;;;;;0.63;0.20;;;23.40;58.10;;;;;;5042438;28;20876;-60
2022/09/06 05:29:08;;;;;;;1.48;0.30;;;23.40;58.10;;;;;;5042072;28;20041;-64
2022/09/06 05:31:35;;;;;;;0.63;0.13;;;23.40;58.10;;;;;;5054526;28;20059;-60
2022/09/06 05:34:03;;;;;;;0.73;0.32;;;23.40;58.20;;;;;;5053646;28;20476;-60
2022/09/06 05:36:31;;;;;;;4.65;0.45;;;23.40;58.30;;;;;;5050675;28;20032;-59
2022/09/06 05:39:00;;;;;;;6.28;0.30;;;23.40;58.50;;;;;;5053944;28;20131;-59
2022/09/06 05:41:27;;;;;;;6.03;0.50;;;23.40;58.40;;;;;;5053971;28;20137;-57
2022/09/06 05:43:54;;;;;;;0.55;0.40;;;23.40;58.50;;;;;;5034249;28;20609;-59
2022/09/06 05:46:21;;;;;;;0.80;0.15;;;23.40;58.40;;;;;;5049677;28;20047;-60
2022/09/06 05:48:53;;;;;;;2.42;0.28;;;23.40;58.40;;;;;;5055819;28;20133;-61
2022/09/06 05:51:20;;;;;;;1.85;0.38;;;23.40;58.20;;;;;;5048405;28;20041;-60
2022/09/06 05:53:47;;;;;;;1.73;0.30;;;23.40;58.30;;;;;;5053567;28;20047;-61
2022/09/06 05:56:17;;;;;;;6.32;0.28;;;23.40;58.40;;;;;;5053450;28;20080;-61
2022/09/06 05:58:45;;;;;;;1.08;0.30;;;23.40;58.40;;;;;;5040218;28;20037;-60
2022/09/06 06:01:17;;;;;;;1.98;0.25;;;23.30;58.40;;;;;;5050301;28;20037;-60
2022/09/06 06:03:50;;;;;;;1.83;0.75;;;23.40;58.50;;;;;;5042206;28;20041;-60
2022/09/06 06:06:18;;;;;;;1.95;0.40;;;23.40;58.70;;;;;;5042509;28;20049;-60
2022/09/06 06:08:45;;;;;;;0.60;0.22;;;23.40;58.70;;;;;;5051158;28;20668;-59
2022/09/06 06:11:12;;;;;;;1.50;0.20;;;23.30;58.60;;;;;;5047656;28;20525;-60
2022/09/06 06:13:42;;;;;;;2.83;0.50;;;23.40;58.60;;;;;;5049696;28;20509;-60
2022/09/06 06:16:10;;;;;;;6.07;0.43;;;23.40;58.60;;;;;;5047816;28;20840;-59
2022/09/06 06:18:38;;;;;;;1.50;0.30;;;23.40;58.50;;;;;;5047355;28;20501;-60
2022/09/06 06:21:12;;;;;;;2.25;0.20;;;23.30;58.50;;;;;;5041513;28;20129;-60
2022/09/06 06:23:41;;;;;;;1.80;0.22;;;23.30;58.60;;;;;;5049902;28;20076;-61
2022/09/06 06:26:08;;;;;;;1.75;0.32;;;23.30;58.80;;;;;;5049505;28;20140;-60
2022/09/06 06:28:36;;;;;;;5.13;0.40;;;23.40;58.90;;;;;;5060492;28;20045;-56
2022/09/06 06:31:05;;;;;;;3.33;0.30;;;23.40;58.80;;;;;;5052404;28;20032;-57
2022/09/06 06:33:32;;;;;;;10.57;0.68;;;23.40;58.80;;;;;;5051541;28;20141;-56
2022/09/06 06:36:00;;;;;;;2.03;0.90;;;23.40;58.80;;;;;;5052790;28;20037;-58
2022/09/06 06:38:32;;;;;;;3.58;0.73;;;23.40;58.90;;;;;;5049501;28;20044;-63
2022/09/06 06:40:59;;;;;;;10.80;0.95;;;23.40;58.90;;;;;;5051207;28;20113;-68
2022/09/06 06:43:27;;;;;;;4.38;0.82;;;23.50;60.10;;;;;;5045150;28;20072;-56
2022/09/06 06:45:54;;;;;;;4.60;0.30;;;23.60;59.60;;;;;;5039508;28;20045;-61
2022/09/06 06:48:23;;;;;;;1.25;0.40;;;23.70;59.20;;;;;;5039902;28;20048;-54
2022/09/06 06:50:49;;;;;;;2.72;0.20;;;23.70;58.90;;;;;;5049119;28;20037;-70
2022/09/06 06:53:18;;;;;;;1.60;0.20;;;23.80;58.80;;;;;;5057122;28;20051;-60
2022/09/06 06:55:48;;;;;;;0.77;0.10;;;23.80;58.70;;;;;;5047062;28;20517;-59
2022/09/06 06:58:15;;;;;;;3.60;0.40;;;23.90;58.70;;;;;;5037273;28;20545;-59
2022/09/06 07:00:42;;;;;;;0.88;0.17;;;23.90;58.50;;;;;;5049520;28;20047;-58
2022/09/06 07:03:10;;;;;;;2.47;1.17;;;24.00;58.40;;;;;;5048847;28;20041;-63
2022/09/06 07:05:42;;;;;;;0.40;0.20;;;24.00;58.20;;;;;;5051275;28;20071;-62
2022/09/06 07:08:10;;;;;;;2.97;0.60;;;24.00;58.10;;;;;;5046828;28;20187;-59
2022/09/06 07:10:37;;;;;;;2.40;0.47;;;24.10;58.20;;;;;;5052328;28;20055;-61
2022/09/06 07:13:04;;;;;;;2.67;0.95;;;24.10;58.00;;;;;;5047481;28;20420;-59
2022/09/06 07:15:31;;;;;;;8.27;0.70;;;24.20;58.00;;;;;;5048486;28;20195;-59
2022/09/06 07:17:58;;;;;;;0.88;0.10;;;24.20;57.90;;;;;;5052135;28;20073;-58
2022/09/06 07:20:25;;;;;;;1.58;0.10;;;24.30;57.80;;;;;;5045900;28;20494;-56
2022/09/06 07:23:00;;;;;;;1.05;0.10;;;24.40;57.60;;;;;;5052159;28;20036;-52
2022/09/06 07:25:28;;;;;;;1.38;0.50;;;24.40;57.40;;;;;;5043262;28;20510;-54
2022/09/06 07:28:00;;;;;;;2.35;0.40;;;24.50;57.30;;;;;;5045925;28;20508;-60
2022/09/06 07:30:27;;;;;;;2.53;0.20;;;24.60;57.10;;;;;;5047354;28;20464;-64
2022/09/06 07:32:55;;;;;;;1.25;0.28;;;24.60;57.00;;;;;;5050830;28;20669;-63
2022/09/06 07:35:22;;;;;;;5.47;0.30;;;24.70;57.00;;;;;;5051244;28;20471;-69
2022/09/06 07:37:52;;;;;;;1.10;0.30;;;24.80;56.90;;;;;;5047860;28;20501;-64
2022/09/06 07:40:21;;;;;;;1.08;0.40;;;24.90;56.60;;;;;;5027176;28;20033;-65
2022/09/06 07:42:48;;;;;;;3.95;0.85;;;24.90;56.50;;;;;;5045667;28;20077;-64
2022/09/06 07:45:15;;;;;;;6.35;0.30;;;25.00;56.30;;;;;;5054832;28;20090;-60
2022/09/06 07:47:42;;;;;;;1.33;0.10;;;25.00;56.00;;;;;;5041440;28;20092;-62
2022/09/06 07:50:10;;;;;;;0.98;0.30;;;25.10;55.50;;;;;;5053099;28;20068;-56
2022/09/06 07:52:37;;;;;;;1.02;0.68;;;25.10;55.00;;;;;;5039986;28;20037;-53
2022/09/06 07:55:05;;;;;;;5.97;1.10;;;25.20;54.70;;;;;;5049313;28;20048;-49
2022/09/06 07:57:33;;;;;;;3.80;0.20;;;25.20;54.40;;;;;;5046262;28;20044;-55
2022/09/06 08:00:00;;;;;;;1.08;0.10;;;25.20;53.80;;;;;;5049224;28;20037;-55
2022/09/06 08:02:27;;;;;;;3.60;0.20;;;25.30;53.40;;;;;;5043581;28;20040;-56
2022/09/06 08:04:55;;;;;;;1.27;0.20;;;25.30;53.10;;;;;;5045390;28;20097;-56
2022/09/06 08:07:23;;;;;;;0.50;0.35;;;25.30;52.60;;;;;;5048766;28;20135;-55
2022/09/06 08:09:50;;;;;;;3.88;0.60;;;25.40;52.60;;;;;;5046288;28;20100;-53
2022/09/06 08:12:17;;;;;;;0.50;0.20;;;25.40;52.50;;;;;;5046724;28;20041;-59
2022/09/06 08:14:45;;;;;;;0.85;0.30;;;25.50;52.30;;;;;;5043963;28;20080;-57
2022/09/06 08:17:13;;;;;;;4.25;0.17;;;25.50;52.30;;;;;;5046460;28;20037;-59
2022/09/06 08:19:40;;;;;;;1.38;0.35;;;25.60;52.00;;;;;;5034971;28;20056;-58
2022/09/06 08:22:07;;;;;;;2.05;0.20;;;25.60;51.70;;;;;;5051043;28;20055;-60
2022/09/06 08:24:35;;;;;;;4.68;0.35;;;25.70;51.50;;;;;;5045555;28;20464;-60
2022/09/06 08:27:02;;;;;;;0.57;0.13;;;25.70;51.30;;;;;;5041421;28;20041;-60
2022/09/06 08:29:29;;;;;;;0.57;0.10;;;25.70;51.10;;;;;;5041602;28;20132;-61
2022/09/06 08:31:57;;;;;;;1.50;0.38;;;25.70;51.00;;;;;;5054340;28;20051;-56
2022/09/06 08:34:24;;;;;;;1.75;0.57;;;25.70;50.90;;;;;;5049237;28;20597;-61
2022/09/06 08:36:52;;;;;;;0.80;0.10;;;25.70;50.70;;;;;;5055502;28;20048;-65
2022/09/06 08:39:19;;;;;;;1.10;0.10;;;25.80;50.80;;;;;;5043859;28;20059;-58
2022/09/06 08:41:52;;;;;;;0.68;0.10;;;25.80;50.80;;;;;;5049474;28;20041;-58
2022/09/06 08:44:23;;;;;;;1.35;0.17;;;25.80;50.80;;;;;;5033872;28;20041;-60
2022/09/06 08:46:57;;;;;;;0.93;0.10;;;25.80;50.70;;;;;;5049430;28;20224;-63
2022/09/06 08:49:29;;;;;;;1.17;0.10;;;25.80;50.90;;;;;;5048554;28;20569;-65
2022/09/06 08:52:22;;;;;;;0.20;0.10;;;25.80;50.60;;;;;;5050650;28;20056;-53
2022/09/06 08:54:54;;;;;;;0.85;0.10;;;25.90;50.40;;;;;;5044835;28;20045;-62
2022/09/06 08:57:38;;;;;;;1.25;0.10;;;25.90;50.10;;;;;;5047286;28;20134;-60
2022/09/06 09:00:09;;;;;;;0.20;0.10;;;25.90;49.90;;;;;;5049967;28;20523;-56
2022/09/06 09:02:43;;;;;;;0.32;0.10;;;25.90;49.50;;;;;;5053138;28;20064;-61
2022/09/06 09:05:23;;;;;;;1.67;0.10;;;26.00;49.20;;;;;;5049243;28;20041;-60
2022/09/06 09:08:00;;;;;;;2.45;0.15;;;26.10;49.00;;;;;;5049283;28;20132;-61
2022/09/06 09:10:29;;;;;;;1.40;0.10;;;26.10;48.70;;;;;;5047414;28;20116;-59
2022/09/06 09:12:57;;;;;;;3.20;0.30;;;26.10;48.70;;;;;;5048488;28;20138;-60
2022/09/06 09:15:24;;;;;;;0.13;0.10;;;26.10;48.60;;;;;;5047381;28;20417;-57
2022/09/06 09:17:53;;;;;;;0.68;0.68;;;26.20;48.50;;;;;;5052863;28;20044;-57
2022/09/06 09:20:22;;;;;;;4.00;0.10;;;26.30;48.30;;;;;;5050933;28;20045;-59
2022/09/06 09:22:49;;;;;;;4.65;0.20;;;26.30;48.10;;;;;;5052115;28;20057;-53
2022/09/06 09:25:21;;;;;;;0.40;0.22;;;26.40;48.00;;;;;;5044339;28;20640;-56
2022/09/06 09:27:56;;;;;;;3.10;0.10;;;26.50;47.90;;;;;;5049039;28;20145;-60
2022/09/06 09:30:24;;;;;;;2.47;0.20;;;26.70;47.80;;;;;;5042726;28;20512;-60
2022/09/06 09:32:51;;;;;;;0.95;0.10;;;26.80;47.50;;;;;;5044356;28;20577;-57
2022/09/06 09:35:23;;;;;;;1.75;0.10;;;26.90;47.40;;;;;;5034326;28;20050;-55
2022/09/06 09:38:00;;;;;;;5.88;0.30;;;27.00;47.00;;;;;;5048527;28;20045;-54
2022/09/06 09:40:30;;;;;;;0.50;0.10;;;27.10;46.90;;;;;;5048620;28;20086;-58
2022/09/06 09:43:10;;;;;;;2.40;0.20;;;27.10;46.60;;;;;;5023132;28;20046;-59
2022/09/06 09:45:38;;;;;;;4.47;0.10;;;27.20;46.50;;;;;;5048688;28;20045;-52
2022/09/06 09:48:19;;;;;;;1.65;0.10;;;27.20;46.50;;;;;;5051958;28;20413;-53
2022/09/06 09:50:47;;;;;;;3.85;0.10;;;27.30;46.50;;;;;;5048761;28;20045;-57
2022/09/06 09:53:17;;;;;;;1.65;0.20;;;27.30;46.50;;;;;;5048224;28;20044;-56
2022/09/06 09:55:44;;;;;;;1.17;0.32;;;27.40;46.50;;;;;;5048811;28;20049;-56
2022/09/06 09:58:24;;;;;;;0.98;0.10;;;27.50;46.40;;;;;;5048160;28;20047;-56
2022/09/06 10:01:10;;;;;;;1.35;0.47;;;27.60;46.30;;;;;;5056725;28;20474;-56
2022/09/06 10:03:37;;;;;;;;;;;27.70;46.20;;;;;;5051257;28;20647;-58
2022/09/06 10:06:10;;;;;;;0.52;0.10;;;27.70;46.30;;;;;;5050785;28;19931;-51
2022/09/06 10:08:41;;;;;;;2.17;0.40;;;27.70;46.10;;;;;;5053841;28;20065;-61
2022/09/06 10:11:12;;;;;;;1.77;0.10;;;27.80;45.70;;;;;;5030072;28;20049;-60
2022/09/06 10:13:41;;;;;;;1.73;0.10;;;27.80;45.50;;;;;;5042887;28;20394;-61
2022/09/06 10:16:09;;;;;;;0.20;0.10;;;27.80;45.40;;;;;;5036236;28;20037;-61
2022/09/06 10:18:38;;;;;;;2.67;0.10;;;27.80;45.30;;;;;;5049300;28;20060;-61
2022/09/06 10:21:11;;;;;;;1.73;0.45;;;27.80;45.30;;;;;;5044789;28;20147;-70
2022/09/06 10:23:54;;;;;;;4.05;0.32;;;27.80;45.50;;;;;;5011677;28;20076;-62
2022/09/06 10:26:30;;;;;;;0.82;0.10;;;27.80;45.60;;;;;;5027406;28;20041;-60
2022/09/06 10:29:04;;;;;;;1.80;0.10;;;27.90;45.60;;;;;;5052533;28;20036;-56
2022/09/06 10:32:01;;;;;;;3.55;0.10;;;27.80;45.40;;;;;;5049040;28;20151;-56
2022/09/06 10:34:51;;;;;;;2.25;0.10;;;27.80;45.40;;;;;;5048432;28;20049;-55
2022/09/06 10:37:37;;;;;;;1.70;0.17;;;27.70;45.40;;;;;;5027559;28;20041;-55
2022/09/06 10:40:07;;;;;;;2.17;0.10;;;27.70;45.60;;;;;;5051336;28;20098;-63
2022/09/06 10:42:42;;;;;;;0.70;0.40;;;27.60;45.70;;;;;;5049494;28;20437;-59
2022/09/06 10:45:45;;;;;;;0.50;0.10;;;27.60;45.90;;;;;;5048936;28;20088;-58
2022/09/06 10:48:17;;;;;;;2.08;0.10;;;27.60;46.00;;;;;;5032449;28;20047;-60
2022/09/06 10:50:50;;;;;;;1.73;0.10;;;27.50;46.00;;;;;;5049343;28;20060;-58
2022/09/06 10:53:39;;;;;;;7.05;0.75;;;27.50;46.00;;;;;;5031322;28;20393;-55
2022/09/06 10:56:10;;;;;;;3.83;0.10;;;27.60;46.10;;;;;;5045441;28;20065;-54
2022/09/06 10:58:49;;;;;;;2.05;0.30;;;27.50;46.10;;;;;;5047280;28;20749;-57
2022/09/06 11:01:25;;;;;;;2.92;0.38;;;27.60;46.20;;;;;;5033781;28;20037;-58
2022/09/06 11:03:56;;;;;;;2.33;0.10;;;27.60;46.30;;;;;;5050056;28;20098;-59
2022/09/06 11:06:28;;;;;;;0.10;0.10;;;27.70;46.20;;;;;;5030206;28;20040;-58
2022/09/06 11:09:02;;;;;;;0.75;0.10;;;27.70;45.70;;;;;;5057018;28;20397;-59
2022/09/06 11:11:44;;;;;;;1.13;0.10;;;27.70;45.40;;;;;;5051234;28;20047;-60
2022/09/06 11:14:14;;;;;;;2.33;0.73;;;27.80;45.50;;;;;;5031229;28;20041;-60
2022/09/06 11:16:46;;;;;;;1.45;0.10;;;27.80;45.70;;;;;;5012578;28;20509;-62
2022/09/06 11:19:20;;;;;;;0.20;0.17;;;27.80;45.70;;;;;;5042515;28;20048;-60
2022/09/06 11:22:18;;;;;;;0.82;0.10;;;27.80;45.70;;;;;;5054753;28;20045;-64
2022/09/06 11:25:02;;;;;;;1.50;0.10;;;27.90;45.60;;;;;;5039062;28;20164;-60
2022/09/06 11:27:36;;;;;;;1.55;0.10;;;27.90;45.80;;;;;;5041639;28;20045;-63
2022/09/06 11:30:05;;;;;;;5.30;0.20;;;27.90;46.10;;;;;;5046568;28;20044;-60
2022/09/06 11:32:38;;;;;;;1.77;0.20;;;27.90;46.40;;;;;;5046146;28;20087;-62
2022/09/06 11:35:09;;;;;;;0.63;0.20;;;28.10;46.40;;;;;;5043553;28;20123;-55
2022/09/06 11:37:41;;;;;;;1.63;0.52;;;28.30;46.30;;;;;;5043950;28;20498;-55
2022/09/06 11:40:17;;;;;;;3.38;0.30;;;28.50;46.10;;;;;;5044773;28;20044;-67
2022/09/06 11:43:13;;;;;;;0.65;0.40;;;28.70;45.20;;;;;;5045259;28;20056;-62
2022/09/06 11:45:44;;;;;;;2.58;0.10;;;28.70;45.10;;;;;;5047402;28;20143;-63
2022/09/06 11:48:33;;;;;;;1.23;0.10;;;28.60;44.90;;;;;;5042811;28;20092;-62
2022/09/06 11:51:05;;;;;;;1.58;0.95;;;28.60;45.00;;;;;;5037657;28;20060;-61
2022/09/06 11:53:35;;;;;;;1.02;0.50;;;28.60;45.20;;;;;;5048850;28;20441;-61
2022/09/06 11:56:27;;;;;;;1.45;0.13;;;28.60;45.30;;;;;;5045167;28;20052;-62
2022/09/06 11:59:00;;;;;;;1.67;0.10;;;28.70;45.20;;;;;;5046603;28;20071;-62
2022/09/06 12:01:37;;;;;;;1.58;0.30;;;28.70;45.80;;;;;;5048265;28;20056;-62
2022/09/06 12:04:08;;;;;;;5.00;0.10;;;28.80;45.50;;;;;;5046692;28;20041;-62
2022/09/06 12:06:38;;;;;;;4.40;0.10;;;28.90;45.20;;;;;;5043217;28;20148;-62
2022/09/06 12:09:31;;;;;;;1.20;0.47;;;28.80;45.00;;;;;;5052666;28;20048;-62
2022/09/06 12:12:00;;;;;;;3.80;0.25;;;28.90;44.80;;;;;;5048407;28;20041;-61
2022/09/06 12:14:31;;;;;;;0.40;0.10;;;29.00;44.50;;;;;;5049388;28;20044;-62
2022/09/06 12:17:19;;;;;;;1.45;0.82;;;29.00;44.80;;;;;;5050329;28;20064;-63
2022/09/06 12:19:48;;;;;;;1.00;0.10;;;29.20;44.60;;;;;;5050377;28;20107;-63
2022/09/06 12:23:02;;;;;;;1.33;0.52;;;29.30;44.50;;;;;;5055266;28;20047;-63
2022/09/06 12:25:54;;;;;;;1.83;0.15;;;29.30;44.00;;;;;;5052899;28;20076;-63
2022/09/06 12:28:43;;;;;;;1.70;0.10;;;29.50;44.60;;;;;;5036925;28;20098;-64
2022/09/06 12:31:30;;;;;;;0.10;0.10;;;29.60;44.30;;;;;;5049766;28;20049;-61
2022/09/06 12:33:58;;;;;;;3.58;0.10;;;29.70;43.70;;;;;;5042923;28;20103;-63
2022/09/06 12:36:30;;;;;;;3.42;0.20;;;29.80;43.00;;;;;;5055022;28;20048;-63
2022/09/06 12:38:59;;;;;;;2.22;0.10;;;29.80;42.80;;;;;;5045249;28;20135;-62
2022/09/06 12:41:28;;;;;;;1.60;0.10;;;29.90;42.90;;;;;;5050555;28;20060;-62
2022/09/06 12:43:59;;;;;;;2.08;0.30;;;30.00;43.10;;;;;;5045444;28;20748;-62
2022/09/06 12:46:30;;;;;;;4.05;1.00;;;30.10;42.40;;;;;;5042060;28;20444;-61
2022/09/06 12:49:02;;;;;;;3.58;1.65;;;30.20;42.10;;;;;;5049129;28;20079;-61
2022/09/06 12:51:29;;;;;;;1.58;0.10;;;30.20;41.40;;;;;;5042147;28;20498;-65
2022/09/06 12:53:59;;;;;;;2.45;0.10;;;30.30;41.00;;;;;;5033926;28;20749;-64
2022/09/06 12:56:28;;;;;;;0.40;0.22;;;30.40;41.30;;;;;;5061795;28;20183;-60
2022/09/06 12:59:18;;;;;;;6.38;0.20;;;30.50;41.10;;;;;;5044258;28;20033;-61
2022/09/06 13:01:53;;;;;;;1.40;0.20;;;30.60;41.20;;;;;;5029158;28;20710;-61
2022/09/06 13:04:27;;;;;;;4.38;0.15;;;30.70;40.90;;;;;;5048980;28;20048;-61
2022/09/06 13:06:55;;;;;;;1.63;0.10;;;30.90;41.00;;;;;;5032577;28;20112;-59
2022/09/06 13:09:25;;;;;;;0.75;0.20;;;30.90;40.70;;;;;;5054189;28;20404;-64